createdAt,value
2023-02-18T00:00:08.222Z,86.93
2023-02-18T00:10:14.707Z,86.74
2023-02-18T00:20:18.938Z,85.61
2023-02-18T00:30:21.764Z,85.36
2023-02-18T00:40:25.811Z,85.03
2023-02-18T00:50:28.752Z,84.81
2023-02-18T01:00:32.702Z,83.97
2023-02-18T01:10:36.549Z,84.14
2023-02-18T01:20:43.539Z,85.20
2023-02-18T01:30:46.146Z,86.35
2023-02-18T01:40:53.052Z,87.36
2023-02-18T01:51:00.050Z,87.48
2023-02-18T02:01:04.225Z,87.10
2023-02-18T02:11:18.773Z,86.86
2023-02-18T02:21:57.282Z,86.61
2023-02-18T02:32:19.352Z,87.09
2023-02-18T02:42:30.765Z,86.56
2023-02-18T02:52:36.198Z,86.36
2023-02-18T03:02:52.352Z,85.93
2023-02-18T03:13:05.668Z,85.29
2023-02-18T03:23:14.345Z,85.77
2023-02-18T03:33:19.655Z,86.23
2023-02-18T03:43:24.589Z,86.65
2023-02-18T03:53:27.188Z,87.26
2023-02-18T04:03:31.173Z,87.75
2023-02-18T04:13:33.793Z,89.77
2023-02-18T04:23:37.921Z,90.97
2023-02-18T04:33:40.576Z,92.98
2023-02-18T04:43:44.531Z,96.68
2023-02-18T04:53:47.170Z,96.80
2023-02-18T05:03:51.269Z,98.13
2023-02-18T05:13:53.940Z,100.30
2023-02-18T05:23:58.027Z,101.70
2023-02-18T05:34:00.664Z,101.53
2023-02-18T05:44:22.460Z,102.15
2023-02-18T05:54:26.571Z,103.24
2023-02-18T06:04:30.715Z,103.29
2023-02-18T06:14:33.446Z,103.12
2023-02-18T06:24:37.656Z,103.71
2023-02-18T06:34:40.274Z,104.22
2023-02-18T06:44:44.406Z,105.00
2023-02-18T06:54:47.045Z,106.41
2023-02-18T07:04:51.179Z,108.03
2023-02-18T07:14:53.838Z,107.72
2023-02-18T07:24:58.042Z,107.74
2023-02-18T07:35:00.700Z,108.62
2023-02-18T07:45:04.948Z,108.99
2023-02-18T07:55:08.525Z,108.85
2023-02-18T08:05:13.911Z,109.41
2023-02-18T08:15:16.654Z,109.75
2023-02-18T08:25:29.376Z,109.55
2023-02-18T08:35:32.597Z,109.10
2023-02-18T08:45:38.128Z,108.74
2023-02-18T08:55:42.045Z,108.48
2023-02-18T09:05:45.995Z,108.45
2023-02-18T09:15:57.647Z,108.11
2023-02-18T09:26:01.658Z,107.35
2023-02-18T09:36:04.926Z,107.27
2023-02-18T09:46:18.430Z,107.62
2023-02-18T09:56:28.795Z,107.50
2023-02-18T10:06:33.649Z,107.98
2023-02-18T10:16:36.320Z,108.49
2023-02-18T10:26:40.469Z,108.04
2023-02-18T10:36:46.895Z,108.18
2023-02-18T10:46:59.824Z,108.30
2023-02-18T10:57:04.718Z,108.04
2023-02-18T11:07:14.826Z,107.46
2023-02-18T11:17:21.275Z,106.76
2023-02-18T11:27:29.422Z,104.79
2023-02-18T11:37:34.043Z,103.00
2023-02-18T11:47:38.964Z,100.80
2023-02-18T11:57:45.206Z,98.52
2023-02-18T12:07:52.190Z,98.19
2023-02-18T12:18:18.631Z,97.41
2023-02-18T12:28:38.975Z,94.35
2023-02-18T12:38:55.596Z,94.17
2023-02-18T12:49:15.676Z,92.19
2023-02-18T12:59:36.354Z,91.45
2023-02-18T13:09:53.837Z,89.96
2023-02-18T13:20:00.594Z,92.21
2023-02-18T13:30:19.772Z,89.76
2023-02-18T13:40:27.613Z,90.36
2023-02-18T13:50:43.003Z,89.66
2023-02-18T14:00:51.096Z,90.08
2023-02-18T14:11:41.624Z,90.50
2023-02-18T14:21:45.569Z,89.92
2023-02-18T14:31:55.236Z,88.17
2023-02-18T14:42:04.390Z,88.32
2023-02-18T14:52:13.435Z,87.77
2023-02-18T15:02:23.080Z,93.14
2023-02-18T15:12:26.213Z,92.98
2023-02-18T15:22:34.938Z,95.55
2023-02-18T15:32:37.598Z,101.90
2023-02-18T15:42:41.629Z,102.87
2023-02-18T15:52:44.360Z,100.78
2023-02-18T16:02:57.187Z,100.52
2023-02-18T16:13:01.269Z,99.02
2023-02-18T16:23:13.513Z,97.61
2023-02-18T16:33:16.583Z,96.29
2023-02-18T16:43:22.014Z,97.17
2023-02-18T16:53:24.654Z,98.73
2023-02-18T17:03:28.815Z,101.13
2023-02-18T17:13:31.749Z,100.32
2023-02-18T17:23:35.732Z,98.80
2023-02-18T17:33:39.302Z,97.14
2023-02-18T17:43:43.517Z,100.16
2023-02-18T17:53:46.144Z,101.25
2023-02-18T18:03:50.210Z,103.04
2023-02-18T18:13:53.773Z,104.01
2023-02-18T18:23:57.716Z,104.64
2023-02-18T18:34:00.379Z,104.24
2023-02-18T18:44:05.694Z,103.41
2023-02-18T18:54:08.310Z,103.89
2023-02-18T19:04:12.367Z,103.42
2023-02-18T19:14:15.409Z,103.41
2023-02-18T19:24:19.383Z,103.86
2023-02-18T19:34:22.740Z,103.19
2023-02-18T19:44:26.800Z,103.02
2023-02-18T19:54:29.432Z,103.63
2023-02-18T20:04:33.834Z,103.48
2023-02-18T20:14:37.173Z,103.06
2023-02-18T20:24:41.960Z,103.09
2023-02-18T20:34:44.690Z,102.92
2023-02-18T20:44:49.206Z,102.47
2023-02-18T20:54:51.857Z,102.91
2023-02-18T21:04:55.845Z,102.84
2023-02-18T21:14:58.474Z,102.89
2023-02-18T21:25:02.387Z,102.76
2023-02-18T21:35:05.204Z,102.73
2023-02-18T21:45:09.967Z,102.84
2023-02-18T21:55:12.962Z,102.88
2023-02-18T22:05:17.062Z,102.89
2023-02-18T22:15:19.680Z,102.95
2023-02-18T22:25:23.709Z,103.02
2023-02-18T22:35:26.318Z,102.96
2023-02-18T22:45:30.336Z,102.92
2023-02-18T22:55:33.154Z,102.91
2023-02-18T23:05:37.152Z,103.05
2023-02-18T23:15:39.773Z,103.02
2023-02-18T23:25:43.885Z,102.80
2023-02-18T23:35:46.501Z,103.29
2023-02-18T23:45:50.484Z,103.25
2023-02-18T23:56:03.449Z,103.20
